Time;durP1;ratioP1;P1;durP2;ratioP2;P2;SDS_P1;SDS_P2;PMS_P1;PMS_P2;Temp;Humidity;BMP_temperature;BMP_pressure;BME280_temperature;BME280_humidity;BME280_pressure;Samples;Min_cycle;Max_cycle;Signal;HPM_P1;HPM_P2
2022/06/13 07:02:07;;;;;;;;;9.00;7.67;;;;;20.66;51.58;102127.53;5067158;28;47633;-75
2022/06/13 07:04:33;;;;;;;;;4.33;4.33;;;;;20.96;51.20;102128.06;5068714;27;45674;-74
2022/06/13 07:06:58;;;;;;;;;7.33;5.00;;;;;21.27;50.48;102129.25;5060576;28;46132;-74
2022/06/13 07:09:24;;;;;;;;;5.00;5.00;;;;;21.59;49.90;102128.53;5061054;27;45993;-74
2022/06/13 07:11:55;;;;;;;;;5.67;5.67;;;;;21.92;49.18;102136.81;5062329;28;52349;-76
2022/06/13 07:14:24;;;;;;;;;7.33;6.33;;;;;22.27;48.87;102142.19;5046396;28;45647;-75
2022/06/13 07:16:49;;;;;;;;;4.67;4.67;;;;;22.57;48.24;102137.94;5046650;28;46161;-75
2022/06/13 07:19:14;;;;;;;;;4.67;4.67;;;;;22.85;47.93;102135.63;5047985;28;55149;-74
2022/06/13 07:21:40;;;;;;;;;5.00;3.33;;;;;23.09;47.41;102129.94;5048372;28;45905;-76
2022/06/13 07:24:06;;;;;;;;;7.67;6.00;;;;;23.32;47.15;102135.22;5047951;28;45503;-75
2022/06/13 07:26:31;;;;;;;;;6.00;6.00;;;;;23.53;46.97;102134.34;5043636;28;46372;-76
2022/06/13 07:28:57;;;;;;;;;7.00;5.00;;;;;23.74;46.67;102141.59;5045790;28;46908;-77
2022/06/13 07:31:41;;;;;;;;;5.67;5.00;;;;;23.92;45.60;102137.22;5044576;28;46076;-77
2022/06/13 07:34:14;;;;;;;;;5.33;4.00;;;;;24.14;45.46;102134.47;5044168;27;46827;-77
2022/06/13 07:36:40;;;;;;;;;10.00;5.00;;;;;24.30;45.14;102139.34;5043904;28;46925;-78
2022/06/13 07:39:05;;;;;;;;;6.00;6.00;;;;;24.48;45.07;102139.53;5045476;28;46076;-77
2022/06/13 07:41:31;;;;;;;;;6.00;4.67;;;;;24.62;44.72;102140.97;5043496;28;51833;-77
2022/06/13 07:43:57;;;;;;;;;7.67;5.67;;;;;24.76;44.31;102145.09;5056356;27;45542;-76
2022/06/13 07:46:25;;;;;;;;;6.33;5.33;;;;;24.87;44.01;102130.56;5043268;28;46247;-76
2022/06/13 07:48:51;;;;;;;;;4.33;4.33;;;;;24.96;43.78;102136.97;5041591;28;47464;-75
2022/06/13 07:51:19;;;;;;;;;6.00;4.33;;;;;25.07;43.65;102141.41;5044509;28;45549;-77
2022/06/13 07:53:44;;;;;;;;;5.00;4.00;;;;;25.16;43.43;102142.38;5045033;27;45595;-77
2022/06/13 07:56:14;;;;;;;;;4.00;4.00;;;;;25.23;43.19;102140.81;5046970;28;46165;-75
2022/06/13 07:58:42;;;;;;;;;6.00;6.00;;;;;25.30;43.09;102143.81;5053309;28;45518;-74
2022/06/13 08:01:10;;;;;;;;;5.00;5.00;;;;;25.38;43.02;102144.78;5045042;28;45509;-74
2022/06/13 08:03:36;;;;;;;;;8.00;7.00;;;;;25.45;42.71;102142.31;5043991;28;45435;-74
2022/06/13 08:06:02;;;;;;;;;5.00;5.00;;;;;25.51;42.83;102152.59;5040433;28;46265;-74
2022/06/13 08:08:28;;;;;;;;;7.00;7.00;;;;;25.59;42.71;102153.75;5031099;28;45946;-75
2022/06/13 08:10:57;;;;;;;;;7.67;6.00;;;;;25.63;42.87;102152.47;5031850;28;45609;-75
2022/06/13 08:13:24;;;;;;;;;5.00;5.00;;;;;25.68;42.36;102152.88;5030725;28;45784;-76
2022/06/13 08:15:50;;;;;;;;;6.00;4.33;;;;;25.73;41.88;102156.00;5035574;28;46925;-76
2022/06/13 08:18:16;;;;;;;;;5.33;4.33;;;;;25.76;41.47;102147.53;5030126;28;45850;-76
2022/06/13 08:20:42;;;;;;;;;8.33;6.33;;;;;25.81;41.54;102148.94;5029813;28;45498;-76
2022/06/13 08:23:11;;;;;;;;;7.67;6.00;;;;;25.84;41.34;102145.94;5040253;28;45415;-78
2022/06/13 08:25:38;;;;;;;;;7.00;6.33;;;;;25.88;41.28;102147.34;5030408;28;45996;-77
2022/06/13 08:28:04;;;;;;;;;6.00;6.00;;;;;25.90;40.50;102145.31;5033630;28;45490;-77
2022/06/13 08:30:50;;;;;;;;;9.00;9.00;;;;;25.90;40.83;102145.31;5027949;28;45839;-77
2022/06/13 08:33:17;;;;;;;;;6.00;5.00;;;;;25.93;40.06;102150.47;5029812;28;46341;-78
2022/06/13 08:35:42;;;;;;;;;6.33;6.33;;;;;25.94;39.95;102149.44;5030330;28;48207;-78
2022/06/13 08:38:08;;;;;;;;;7.33;5.67;;;;;25.95;39.80;102158.47;5028983;28;45675;-78
2022/06/13 08:41:04;;;;;;;;;7.33;5.00;;;;;25.96;39.80;102150.19;5029810;28;45530;-78
2022/06/13 08:43:54;;;;;;;;;6.00;5.00;;;;;25.96;39.38;102146.59;5038155;28;46962;-78
2022/06/13 08:46:39;;;;;;;;;6.00;4.00;;;;;25.97;39.09;102140.13;5034672;28;45720;-78
2022/06/13 08:49:28;;;;;;;;;9.67;8.00;;;;;25.95;39.37;102139.44;5021190;28;47204;-77
2022/06/13 08:52:10;;;;;;;;;5.33;5.33;;;;;25.96;38.89;102141.16;5036805;28;45565;-76
2022/06/13 08:54:37;;;;;;;;;5.67;5.00;;;;;25.96;38.96;102147.47;5031735;28;45703;-76
2022/06/13 08:57:09;;;;;;;;;5.33;5.33;;;;;25.97;39.11;102142.84;5037110;28;46123;-76
2022/06/13 08:59:45;;;;;;;;;6.00;6.00;;;;;25.99;38.61;102143.56;5038391;28;47355;-76
2022/06/13 09:02:25;;;;;;;;;6.00;5.00;;;;;26.01;38.61;102156.00;5016249;28;46006;-77
2022/06/13 09:04:53;;;;;;;;;5.33;5.33;;;;;26.01;38.27;102141.53;5040053;28;45475;-76
2022/06/13 09:07:24;;;;;;;;;4.33;4.33;;;;;26.01;39.01;102145.13;5036889;28;46250;-76
2022/06/13 09:10:02;;;;;;;;;4.33;4.00;;;;;26.01;38.63;102153.28;5036771;28;45764;-76
2022/06/13 09:12:37;;;;;;;;;8.00;5.33;;;;;26.02;37.98;102148.69;5036428;28;45573;-76
2022/06/13 09:15:10;;;;;;;;;6.00;5.00;;;;;26.04;38.11;102154.84;5039376;28;45650;-77
2022/06/13 09:17:43;;;;;;;;;4.00;4.00;;;;;26.04;37.85;102149.41;5041115;28;45435;-76
2022/06/13 09:20:38;;;;;;;;;5.67;5.67;;;;;26.07;38.28;102151.81;5034055;28;45576;-76
2022/06/13 09:23:17;;;;;;;;;5.67;4.67;;;;;26.08;37.84;102148.09;5030165;28;45592;-76
2022/06/13 09:25:55;;;;;;;;;5.00;5.00;;;;;26.11;37.74;102149.66;5030537;28;46254;-75
2022/06/13 09:28:28;;;;;;;;;5.00;5.00;;;;;26.13;38.17;102147.63;5028837;28;45755;-75
2022/06/13 09:31:03;;;;;;;;;8.00;7.33;;;;;26.14;37.71;102155.66;5035757;28;45622;-76
2022/06/13 09:33:31;;;;;;;;;7.00;5.00;;;;;26.16;37.44;102152.78;5029316;28;45562;-76
2022/06/13 09:36:03;;;;;;;;;6.33;4.00;;;;;26.17;37.40;102158.03;5029684;28;45872;-77
2022/06/13 09:38:35;;;;;;;;;6.33;6.33;;;;;26.19;37.54;102147.00;5031216;28;47436;-78
2022/06/13 09:41:00;;;;;;;;;6.33;5.00;;;;;26.22;37.39;102154.03;5030319;28;45743;-77
2022/06/13 09:43:46;;;;;;;;;5.33;5.00;;;;;26.22;37.29;102152.16;5029477;28;45714;-77
2022/06/13 09:46:38;;;;;;;;;6.00;6.00;;;;;26.23;36.79;102145.72;5030188;28;45691;-76
2022/06/13 09:49:21;;;;;;;;;6.33;5.33;;;;;26.23;36.46;102151.16;5035574;28;46279;-77
2022/06/13 09:51:52;;;;;;;;;6.33;4.67;;;;;26.24;37.14;102161.03;5031645;28;45490;-77
2022/06/13 09:54:41;;;;;;;;;5.67;5.67;;;;;26.21;36.53;102142.28;5028100;28;45488;-77
2022/06/13 09:57:20;;;;;;;;;4.33;4.33;;;;;26.25;36.96;102146.47;5030086;28;45940;-77
2022/06/13 09:59:51;;;;;;;;;6.00;5.67;;;;;26.27;37.06;102140.84;5029121;28;47038;-77
2022/06/13 10:02:46;;;;;;;;;7.67;6.33;;;;;26.27;36.66;102146.28;5029397;28;45609;-76
2022/06/13 10:05:24;;;;;;;;;7.00;4.67;;;;;26.27;36.62;102147.16;5033942;28;45562;-76
2022/06/13 10:08:09;;;;;;;;;5.33;5.00;;;;;26.29;36.45;102150.56;5035480;28;45887;-77
2022/06/13 10:11:05;;;;;;;;;4.67;4.33;;;;;26.31;36.34;102142.25;5035437;28;46995;-75
2022/06/13 10:13:56;;;;;;;;;5.00;5.00;;;;;26.30;36.72;102146.84;5033549;28;46942;-76
2022/06/13 10:16:30;;;;;;;;;6.00;6.00;;;;;26.31;36.30;102140.41;5044921;28;45661;-75
2022/06/13 10:19:10;;;;;;;;;5.00;5.00;;;;;26.34;36.52;102139.22;5034911;28;46769;-75
2022/06/13 10:21:42;;;;;;;;;5.67;5.67;;;;;26.35;35.85;102142.81;5034594;28;47087;-76
2022/06/13 10:24:22;;;;;;;;;4.00;4.00;;;;;26.36;35.65;102139.91;5038426;28;45452;-75
2022/06/13 10:27:15;;;;;;;;;6.00;5.67;;;;;26.38;36.37;102137.03;5032154;28;45575;-75
2022/06/13 10:29:49;;;;;;;;;4.67;4.67;;;;;26.38;35.84;102135.19;5035161;28;45528;-75
2022/06/13 10:32:34;;;;;;;;;2.67;2.67;;;;;26.40;35.76;102138.59;5032789;28;46962;-75
2022/06/13 10:35:30;;;;;;;;;6.33;5.67;;;;;26.43;35.76;102134.72;5032902;28;47379;-76
2022/06/13 10:38:01;;;;;;;;;4.00;4.00;;;;;26.47;35.84;102132.53;5035269;28;45636;-76
2022/06/13 10:40:27;;;;;;;;;5.00;5.00;;;;;26.47;35.37;102133.41;5029703;28;45853;-76
2022/06/13 10:42:53;;;;;;;;;6.00;4.33;;;;;26.48;35.37;102128.81;5026552;28;46328;-76
2022/06/13 10:45:19;;;;;;;;;6.67;6.33;;;;;26.48;35.53;102137.81;5029003;28;45795;-76
2022/06/13 10:47:55;;;;;;;;;4.00;3.67;;;;;26.49;35.83;102138.69;5026877;28;45900;-78
2022/06/13 10:50:45;;;;;;;;;5.33;5.33;;;;;26.50;35.73;102133.09;5030389;28;45681;-78
2022/06/13 10:53:18;;;;;;;;;4.00;4.00;;;;;26.50;35.08;102129.50;5045698;28;45480;-77
2022/06/13 10:55:44;;;;;;;;;4.33;4.33;;;;;26.51;35.13;102132.09;5051127;28;45632;-77
2022/06/13 10:58:18;;;;;;;;;3.33;3.33;;;;;26.53;35.37;102140.09;5047388;28;45499;-77
2022/06/13 11:01:03;;;;;;;;;5.00;3.33;;;;;26.53;35.42;102135.50;5039729;28;45606;-76
2022/06/13 11:03:28;;;;;;;;;5.33;5.00;;;;;26.53;35.61;102134.66;5037025;28;46165;-76
2022/06/13 11:06:02;;;;;;;;;3.00;3.00;;;;;26.54;36.02;102133.63;5032445;28;45762;-76
2022/06/13 11:08:29;;;;;;;;;3.33;2.67;;;;;26.57;36.10;102130.63;5026757;28;45538;-76
2022/06/13 11:11:00;;;;;;;;;4.00;4.00;;;;;26.61;35.50;102128.44;5030565;28;46107;-76
2022/06/13 11:13:37;;;;;;;;;5.00;5.00;;;;;26.65;35.82;102127.09;5027565;28;48387;-76
2022/06/13 11:22:37;;;;;;;;;4.33;4.33;;;;;26.80;35.70;102141.88;5011954;28;46944;-78
2022/06/13 11:25:10;;;;;;;;;4.00;4.00;;;;;26.87;34.62;102122.16;5015894;28;45701;-81
2022/06/13 11:27:40;;;;;;;;;6.67;5.33;;;;;26.89;34.78;102118.28;5011769;28;46184;-77
2022/06/13 11:30:27;;;;;;;;;4.33;4.33;;;;;26.91;34.92;102126.28;5012040;28;45736;-77
2022/06/13 11:33:04;;;;;;;;;8.00;7.00;;;;;26.92;35.13;102123.41;5013987;28;45675;-77
2022/06/13 11:35:41;;;;;;;;;4.33;4.33;;;;;26.93;34.82;102119.69;5013865;28;46320;-77
2022/06/13 11:38:27;;;;;;;;;6.33;5.33;;;;;26.93;35.15;102118.84;5014278;28;46525;-77
2022/06/13 11:41:10;;;;;;;;;5.67;5.67;;;;;26.94;35.02;102107.78;5017302;28;46088;-77
2022/06/13 11:43:42;;;;;;;;;5.00;5.00;;;;;26.93;34.88;102113.38;5020435;28;46911;-77
2022/06/13 11:46:15;;;;;;;;;7.33;6.00;;;;;26.92;35.08;102109.78;5017336;28;46199;-77
2022/06/13 11:48:47;;;;;;;;;6.00;4.67;;;;;26.92;34.73;102109.78;5016789;28;45534;-77
2022/06/13 11:51:24;;;;;;;;;7.33;6.00;;;;;26.93;35.23;102113.38;5016604;28;46048;-77
2022/06/13 11:53:53;;;;;;;;;6.33;4.67;;;;;26.93;34.62;102108.81;5016457;28;45622;-77
2022/06/13 11:56:30;;;;;;;;;6.00;6.00;;;;;26.92;34.77;102101.63;5025535;28;46274;-77
2022/06/13 11:58:59;;;;;;;;;7.67;5.00;;;;;26.91;34.66;102099.06;5032692;28;45563;-78
2022/06/13 12:01:37;;;;;;;;;7.00;5.00;;;;;26.88;35.11;102105.66;5039357;28;45360;-80
2022/06/13 12:04:11;;;;;;;;;6.67;5.00;;;;;26.87;35.44;102103.97;5039377;28;45484;-76
2022/06/13 12:06:46;;;;;;;;;6.33;5.00;;;;;26.86;35.40;102091.38;5037404;28;45521;-77
2022/06/13 12:09:26;;;;;;;;;4.67;4.67;;;;;26.87;35.55;102093.06;5041053;28;52046;-78
2022/06/13 12:12:00;;;;;;;;;7.67;4.33;;;;;26.87;35.18;102090.34;5032868;28;45527;-78
2022/06/13 12:14:27;;;;;;;;;5.00;4.67;;;;;26.88;34.84;102085.72;5030600;28;45955;-77
2022/06/13 12:17:19;;;;;;;;;5.00;4.33;;;;;26.88;34.86;102088.47;5030808;28;48108;-76
2022/06/13 12:20:02;;;;;;;;;7.00;6.00;;;;;26.88;35.47;102093.91;5034853;28;47468;-77
2022/06/13 12:22:40;;;;;;;;;5.00;5.00;;;;;26.88;34.95;102094.78;5032779;28;45534;-78
2022/06/13 12:25:23;;;;;;;;;5.00;5.00;;;;;26.89;35.54;102088.31;5047012;28;47325;-76
2022/06/13 12:28:05;;;;;;;;;4.00;4.00;;;;;26.89;35.48;102088.31;5026381;28;47014;-73
2022/06/13 12:30:47;;;;;;;;;7.00;5.33;;;;;26.90;35.53;102075.56;5040271;28;45706;-75
2022/06/13 12:33:38;;;;;;;;;4.00;4.00;;;;;26.92;35.73;102074.38;5039583;28;45517;-75
2022/06/13 12:36:21;;;;;;;;;6.00;4.67;;;;;26.93;35.72;102067.94;5037868;28;45880;-75
2022/06/13 12:39:20;;;;;;;;;5.00;5.00;;;;;26.94;35.17;102071.53;5040664;28;47989;-73
2022/06/13 12:41:48;;;;;;;;;5.67;5.00;;;;;26.95;35.16;102065.94;5044222;28;45450;-73
2022/06/13 12:44:40;;;;;;;;;5.00;5.00;;;;;26.98;35.49;102066.63;5048793;28;50111;-74
2022/06/13 12:47:24;;;;;;;;;5.33;5.33;;;;;26.98;35.56;102067.47;5049256;28;45693;-74
2022/06/13 12:50:14;;;;;;;;;5.67;5.00;;;;;26.97;34.99;102065.75;5037952;28;45466;-74
2022/06/13 12:53:10;;;;;;;;;7.00;4.00;;;;;26.96;35.41;102056.72;5084859;27;45449;-74
2022/06/13 12:55:54;;;;;;;;;6.00;6.00;;;;;26.96;35.06;102054.00;5050101;28;45533;-76
2022/06/13 12:58:53;;;;;;;;;6.33;5.00;;;;;26.98;35.12;102066.63;5044050;28;45503;-76
2022/06/13 13:01:21;;;;;;;;;5.67;5.67;;;;;26.95;35.43;102055.03;5046720;28;45689;-76
2022/06/13 13:03:56;;;;;;;;;4.00;4.00;;;;;26.96;34.93;102056.72;5035091;28;45589;-76
2022/06/13 13:06:33;;;;;;;;;5.00;5.00;;;;;26.96;35.61;102055.88;5039344;28;45629;-75
2022/06/13 13:09:21;;;;;;;;;6.33;5.00;;;;;26.97;35.00;102057.56;5042412;28;45727;-75
2022/06/13 13:11:53;;;;;;;;;5.33;5.33;;;;;26.98;35.11;102053.84;5046309;28;46252;-76
2022/06/13 13:14:50;;;;;;;;;5.00;5.00;;;;;26.98;34.95;102059.31;5039742;28;45377;-75
2022/06/13 13:17:15;;;;;;;;;6.00;4.00;;;;;26.98;35.46;102056.59;5039636;28;45656;-76
2022/06/13 13:20:08;;;;;;;;;6.33;6.33;;;;;26.98;34.78;102051.13;5047114;28;45455;-76
2022/06/13 13:22:49;;;;;;;;;6.00;4.67;;;;;26.98;35.36;102056.59;5042784;28;46129;-76
2022/06/13 13:25:45;;;;;;;;;5.00;5.00;;;;;26.99;35.53;102047.38;5031092;28;46091;-76
2022/06/13 13:28:35;;;;;;;;;4.33;4.00;;;;;27.00;35.56;102054.53;5029558;28;46144;-76
2022/06/13 13:31:14;;;;;;;;;4.33;4.00;;;;;26.97;35.18;102041.22;5034600;28;45548;-85
2022/06/13 13:34:04;;;;;;;;;6.00;6.00;;;;;26.97;35.09;102043.94;5032140;28;46501;-78
2022/06/13 13:36:50;;;;;;;;;4.33;4.33;;;;;26.97;35.11;102035.78;5032331;28;54022;-79
2022/06/13 13:39:29;;;;;;;;;5.00;5.00;;;;;26.99;35.64;102036.50;5030806;28;45584;-80
2022/06/13 13:42:03;;;;;;;;;4.33;4.33;;;;;27.01;35.81;102039.88;5032365;28;45540;-80
2022/06/13 13:44:35;;;;;;;;;4.00;4.00;;;;;27.02;35.57;102025.25;5030904;28;46821;-78
2022/06/13 13:47:11;;;;;;;;;6.00;5.67;;;;;27.03;35.40;102029.69;5032363;28;47285;-78
2022/06/13 13:49:51;;;;;;;;;7.00;5.67;;;;;27.06;35.12;102025.81;5033521;28;47101;-78
2022/06/13 13:52:22;;;;;;;;;6.00;6.00;;;;;27.07;36.10;102019.34;5030288;28;47539;-80
2022/06/13 13:55:02;;;;;;;;;5.67;5.67;;;;;27.10;35.78;102022.56;5029888;28;47116;-78
2022/06/13 13:57:41;;;;;;;;;7.33;5.67;;;;;27.12;35.23;102018.81;5031306;28;45493;-78
2022/06/13 14:00:20;;;;;;;;;6.00;5.67;;;;;27.13;35.36;102012.38;5030703;28;46898;-82
2022/06/13 14:03:04;;;;;;;;;7.00;6.00;;;;;27.13;35.23;102015.94;5028103;28;47246;-84
2022/06/13 14:05:59;;;;;;;;;4.00;4.00;;;;;27.10;35.14;102008.94;5030181;28;47131;-81
2022/06/13 14:08:28;;;;;;;;;4.00;4.00;;;;;27.13;35.38;102012.38;5026882;28;47128;-78
2022/06/13 14:10:57;;;;;;;;;4.33;4.33;;;;;27.12;35.75;102003.34;5033091;28;46125;-80
2022/06/13 14:13:31;;;;;;;;;6.67;5.33;;;;;27.14;35.38;101998.56;5032131;28;51351;-81
2022/06/13 14:16:24;;;;;;;;;5.00;4.67;;;;;27.15;35.61;102000.31;5027850;28;45884;-81
2022/06/13 14:18:49;;;;;;;;;9.00;6.00;;;;;27.14;35.89;101998.56;5028303;28;46036;-80
2022/06/13 14:21:35;;;;;;;;;7.67;6.00;;;;;27.15;36.17;101994.00;5030936;28;53959;-79
2022/06/13 14:24:08;;;;;;;;;5.00;5.00;;;;;27.16;36.10;101991.09;5027537;28;45558;-79
2022/06/13 14:26:56;;;;;;;;;7.00;4.00;;;;;27.15;36.57;101986.69;5029105;28;46085;-85
2022/06/13 14:29:24;;;;;;;;;6.00;5.00;;;;;27.22;36.45;101986.88;5028478;28;46155;-82
2022/06/13 14:31:54;;;;;;;;;6.33;6.00;;;;;27.25;36.45;101983.81;5034868;28;45758;-82
2022/06/13 14:37:54;;;;;;;;;7.67;6.00;;;;;27.22;36.42;101982.28;5030586;28;46207;-79
2022/06/13 14:40:28;;;;;;;;;4.67;4.67;;;;;27.22;36.38;101975.97;5030884;28;45772;-82
2022/06/13 14:43:18;;;;;;;;;5.00;5.00;;;;;27.25;36.11;101977.53;5029678;28;45649;-81
2022/06/13 14:45:53;;;;;;;;;5.00;5.00;;;;;27.25;36.33;101970.19;5030447;28;46137;-86
2022/06/13 14:48:34;;;;;;;;;3.33;3.33;;;;;27.25;36.82;101972.91;5033559;28;45507;-80
2022/06/13 14:51:15;;;;;;;;;9.33;6.00;;;;;27.26;37.19;101974.59;5033869;28;46976;-84
2022/06/13 14:53:50;;;;;;;;;9.00;7.33;;;;;27.27;37.00;101960.00;5031388;28;45906;-80
2022/06/13 14:56:15;;;;;;;;;7.33;6.00;;;;;27.29;36.29;101959.78;5030172;28;45461;-81
2022/06/13 14:58:46;;;;;;;;;7.00;6.00;;;;;27.29;36.48;101957.94;5031135;28;46221;-78
2022/06/13 15:01:29;;;;;;;;;6.00;6.00;;;;;27.30;36.48;101954.19;5030389;28;45622;-79
2022/06/13 15:04:03;;;;;;;;;8.00;7.33;;;;;27.34;35.93;101963.75;5028665;28;46455;-83
2022/06/13 15:06:37;;;;;;;;;9.00;8.00;;;;;27.36;36.20;101956.28;5031806;28;45650;-82
2022/06/13 15:09:29;;;;;;;;;6.33;6.00;;;;;27.35;36.11;101957.28;5027770;28;45638;-79
2022/06/13 15:12:09;;;;;;;;;6.67;6.00;;;;;27.37;36.56;101957.09;5030369;28;45698;-81
2022/06/13 15:14:44;;;;;;;;;7.00;7.00;;;;;27.38;36.62;101961.53;5030147;28;45410;-82
2022/06/13 15:17:12;;;;;;;;;4.00;4.00;;;;;27.38;36.10;101950.63;5031242;28;45494;-81
2022/06/13 15:19:42;;;;;;;;;13.33;8.67;;;;;27.37;37.69;101948.94;5034582;28;46883;-80
2022/06/13 15:22:32;;;;;;;;;9.00;8.00;;;;;27.36;38.80;101939.91;5032679;28;46614;-80
2022/06/13 15:25:01;;;;;;;;;8.33;7.00;;;;;27.33;38.58;101939.38;5035139;28;45721;-80
2022/06/13 15:27:28;;;;;;;;;5.00;4.67;;;;;27.32;37.90;101927.63;5033738;28;47168;-78
2022/06/13 15:30:12;;;;;;;;;8.00;7.00;;;;;27.32;38.09;101944.00;5032709;28;47901;-79
2022/06/13 15:32:39;;;;;;;;;7.33;5.67;;;;;27.31;37.78;101945.03;5032799;28;45560;-80
2022/06/13 15:35:11;;;;;;;;;6.33;4.67;;;;;27.30;38.68;101926.09;5036551;28;45644;-80
2022/06/13 15:37:49;;;;;;;;;7.33;6.67;;;;;27.31;38.29;101933.25;5035496;28;49501;-80
2022/06/13 15:40:33;;;;;;;;;5.00;5.00;;;;;27.28;38.63;101933.56;5034019;28;47261;-80
2022/06/13 15:43:00;;;;;;;;;7.00;5.00;;;;;27.28;38.56;101939.03;5031999;28;45584;-80
2022/06/13 15:45:32;;;;;;;;;4.67;4.00;;;;;27.29;37.75;101929.81;5033340;28;45695;-80
2022/06/13 15:47:59;;;;;;;;;5.00;4.33;;;;;27.28;37.90;101933.56;5034374;28;45634;-80
2022/06/13 15:50:27;;;;;;;;;8.67;7.67;;;;;27.28;38.01;101942.63;5034261;28;45515;-80
2022/06/13 15:52:56;;;;;;;;;8.00;6.67;;;;;27.29;38.07;101932.53;5035843;28;47095;-80
2022/06/13 15:55:27;;;;;;;;;8.00;6.67;;;;;27.29;38.07;101938.84;5034428;28;45639;-80
2022/06/13 15:57:58;;;;;;;;;7.33;7.33;;;;;27.30;38.48;101931.56;5032844;28;45730;-80
2022/06/13 16:00:34;;;;;;;;;6.00;5.00;;;;;27.30;38.03;101929.66;5037041;28;46077;-81
2022/06/13 16:03:16;;;;;;;;;8.00;6.00;;;;;27.30;38.01;101915.19;5035825;28;46738;-81
2022/06/13 16:05:42;;;;;;;;;7.33;4.33;;;;;27.31;38.14;101917.75;5037572;28;45659;-81
2022/06/13 16:08:14;;;;;;;;;9.33;8.67;;;;;27.31;37.96;101919.63;5034638;28;46868;-81
2022/06/13 16:10:43;;;;;;;;;7.67;4.67;;;;;27.30;38.35;101912.47;5036141;28;46230;-81
2022/06/13 16:13:15;;;;;;;;;7.33;6.33;;;;;27.31;37.91;101919.63;5032583;28;45723;-81
2022/06/13 16:15:44;;;;;;;;;8.67;5.67;;;;;27.30;38.44;101905.13;5034519;28;45548;-81
2022/06/13 16:18:27;;;;;;;;;6.00;6.00;;;;;27.30;37.99;101910.56;5027958;28;45629;-81
2022/06/13 16:20:53;;;;;;;;;7.00;7.00;;;;;27.31;37.79;101911.44;5031669;28;45569;-81
2022/06/13 16:23:21;;;;;;;;;5.00;5.00;;;;;27.29;37.79;101913.47;5031808;28;45585;-80
2022/06/13 16:25:48;;;;;;;;;6.33;5.67;;;;;27.28;37.92;101909.03;5035699;28;46017;-81
2022/06/13 16:28:16;;;;;;;;;5.00;4.00;;;;;27.03;37.86;101904.38;5033484;28;45600;-81
2022/06/13 16:30:45;;;;;;;;;7.33;6.67;;;;;26.68;38.61;101901.63;5035457;28;46207;-78
2022/06/13 16:33:26;;;;;;;;;10.67;8.00;;;;;26.38;39.49;101895.69;5034086;28;45681;-94
2022/06/13 16:35:58;;;;;;;;;7.00;5.67;;;;;26.19;39.82;101893.97;5035568;28;51154;-89
2022/06/13 16:38:52;;;;;;;;;6.33;6.33;;;;;26.03;40.83;101889.25;5035567;28;45549;-84
2022/06/13 16:41:54;;;;;;;;;6.67;6.33;;;;;25.92;41.78;101887.66;5031750;28;47498;-86
2022/06/13 16:44:33;;;;;;;;;4.67;4.67;;;;;25.85;42.24;101889.28;5034830;28;45498;-82
2022/06/13 16:47:01;;;;;;;;;6.67;5.00;;;;;25.79;42.50;101877.19;5035473;28;45625;-80
2022/06/13 16:49:46;;;;;;;;;10.00;8.33;;;;;25.77;42.44;101884.63;5031833;28;45869;-81
2022/06/13 16:52:14;;;;;;;;;12.00;10.33;;;;;25.74;42.97;101884.94;5033799;28;46199;-83
2022/06/13 16:55:08;;;;;;;;;15.00;12.33;;;;;25.72;43.43;101881.53;5029203;28;45934;-82
2022/06/13 16:57:39;;;;;;;;;15.33;15.33;;;;;25.71;43.99;101871.66;5034676;28;45499;-78
2022/06/13 17:00:08;;;;;;;;;19.33;19.00;;;;;25.71;44.04;101868.94;5032476;28;45601;-77
2022/06/13 17:02:37;;;;;;;;;19.00;19.00;;;;;25.71;44.55;101868.94;5036749;28;45428;-80
2022/06/13 17:05:32;;;;;;;;;28.67;22.67;;;;;25.73;44.45;101872.34;5039478;28;45524;-77
2022/06/13 17:08:14;;;;;;;;;24.00;22.00;;;;;25.75;44.98;101870.34;5036186;28;45604;-78
2022/06/13 17:10:51;;;;;;;;;25.67;22.33;;;;;25.76;44.79;101863.88;5033531;28;45541;-81
2022/06/13 17:13:20;;;;;;;;;23.67;23.00;;;;;25.78;44.59;101862.72;5033108;28;46177;-79
2022/06/13 17:15:47;;;;;;;;;17.33;16.00;;;;;25.81;45.16;101863.41;5034552;28;47207;-81
2022/06/13 17:18:18;;;;;;;;;20.33;17.67;;;;;25.84;44.83;101872.13;5034562;28;45806;-79
2022/06/13 17:20:46;;;;;;;;;18.67;17.33;;;;;25.85;44.76;101870.25;5030311;28;45732;-81
2022/06/13 17:23:15;;;;;;;;;19.00;17.33;;;;;25.84;44.70;101873.97;5031081;28;46727;-79
2022/06/13 17:33:59;;;;;;;;;21.00;17.67;;;;;25.83;45.74;101875.00;5033544;28;45518;-77
2022/06/13 17:36:25;;;;;;;;;17.67;14.67;;;;;25.88;44.15;101886.25;5032276;28;45585;-77
2022/06/13 17:38:50;;;;;;;;;10.00;9.00;;;;;26.01;42.55;101878.53;5030962;28;45831;-76
2022/06/13 17:41:16;;;;;;;;;7.00;7.00;;;;;26.16;42.09;101869.81;5033594;28;45861;-76
2022/06/13 17:43:41;;;;;;;;;13.00;11.67;;;;;26.29;42.54;101870.25;5050762;28;47070;-76
2022/06/13 17:46:07;;;;;;;;;11.67;10.33;;;;;26.43;42.00;101870.69;5031847;28;45828;-76
2022/06/13 17:48:33;;;;;;;;;7.33;7.33;;;;;26.53;41.94;101857.81;5029475;28;45732;-76
2022/06/13 17:50:59;;;;;;;;;10.33;7.33;;;;;26.63;41.32;101865.88;5032495;28;47273;-76
2022/06/13 17:53:25;;;;;;;;;14.33;10.67;;;;;26.71;41.17;101865.03;5033538;28;45562;-76
2022/06/13 17:55:52;;;;;;;;;12.00;11.00;;;;;26.78;41.16;101868.84;5030264;28;45561;-78
2022/06/13 17:58:17;;;;;;;;;10.67;10.33;;;;;26.85;41.11;101869.00;5031632;28;46201;-77
2022/06/13 18:00:47;;;;;;;;;8.67;8.67;;;;;26.88;40.44;101868.69;5031004;28;45598;-76
2022/06/13 18:03:14;;;;;;;;;14.33;12.67;;;;;26.92;40.61;101872.81;5032661;28;46437;-76
2022/06/13 18:05:41;;;;;;;;;14.00;9.33;;;;;26.98;40.57;101873.19;5033406;28;46042;-75
2022/06/13 18:08:12;;;;;;;;;11.33;9.33;;;;;27.01;41.07;101872.88;5034316;28;45807;-76
2022/06/13 18:10:38;;;;;;;;;11.00;10.33;;;;;27.04;40.99;101877.97;5033575;28;45466;-75
2022/06/13 18:13:05;;;;;;;;;9.33;9.33;;;;;27.06;40.49;101873.22;5031512;28;46267;-76
2022/06/13 18:15:31;;;;;;;;;12.67;9.67;;;;;27.06;40.68;101860.44;5032284;28;46144;-76
2022/06/13 18:17:58;;;;;;;;;14.00;12.33;;;;;27.09;40.19;101871.00;5032339;28;45427;-76
2022/06/13 18:20:25;;;;;;;;;13.33;9.00;;;;;27.10;40.81;101871.88;5031917;28;45437;-76
2022/06/13 18:22:51;;;;;;;;;7.67;7.67;;;;;27.11;40.69;101884.47;5034347;28;45518;-76
2022/06/13 18:25:17;;;;;;;;;10.00;10.00;;;;;27.12;40.46;101886.19;5031896;28;45536;-76
2022/06/13 18:27:44;;;;;;;;;9.00;8.33;;;;;27.14;40.60;101877.84;5047372;28;46191;-76
2022/06/13 18:30:14;;;;;;;;;11.00;9.33;;;;;27.14;40.25;101881.41;5033983;28;45537;-75
2022/06/13 18:32:40;;;;;;;;;11.67;9.33;;;;;27.16;39.93;101873.94;5032156;28;46116;-76
2022/06/13 18:35:06;;;;;;;;;10.00;9.00;;;;;27.17;40.41;101872.91;5035185;28;45592;-76
2022/06/13 18:37:31;;;;;;;;;10.67;9.67;;;;;27.18;40.64;101873.78;5034177;28;45767;-75
2022/06/13 18:39:57;;;;;;;;;6.00;6.00;;;;;27.18;40.07;101885.50;5032820;28;46277;-75
2022/06/13 18:42:23;;;;;;;;;12.67;9.00;;;;;27.19;39.60;101872.75;5031298;28;46230;-75
2022/06/13 18:44:49;;;;;;;;;8.00;8.00;;;;;27.18;40.12;101873.78;5032880;28;45812;-75
2022/06/13 18:47:20;;;;;;;;;8.33;8.33;;;;;27.19;40.34;101887.22;5032120;28;46272;-74
2022/06/13 18:49:46;;;;;;;;;7.67;7.67;;;;;27.21;39.88;101878.88;5032303;28;46112;-75
2022/06/13 18:52:13;;;;;;;;;9.67;9.67;;;;;27.22;40.32;101889.59;5031194;28;46312;-74
2022/06/13 18:54:40;;;;;;;;;8.00;8.00;;;;;27.22;40.10;101888.78;5032487;28;46860;-74
2022/06/13 18:57:05;;;;;;;;;10.33;7.33;;;;;27.21;40.41;101887.03;5034501;28;45697;-74
2022/06/13 18:59:31;;;;;;;;;7.33;6.67;;;;;27.20;39.88;101888.06;5034568;28;45710;-74
2022/06/13 19:01:57;;;;;;;;;6.67;6.67;;;;;27.20;40.30;101890.78;5032789;28;56067;-74
2022/06/13 19:04:24;;;;;;;;;10.00;8.33;;;;;27.18;39.88;101885.50;5032050;28;45808;-75
2022/06/13 19:06:55;;;;;;;;;11.67;9.67;;;;;27.18;39.79;101887.41;5031588;28;45540;-74
2022/06/13 19:09:21;;;;;;;;;6.00;6.00;;;;;27.19;39.96;101891.81;5032233;28;47521;-75
2022/06/13 19:11:49;;;;;;;;;6.33;6.33;;;;;27.17;40.21;101893.84;5030081;28;45800;-75
2022/06/13 19:14:17;;;;;;;;;8.00;7.00;;;;;27.18;39.75;101899.13;5034213;28;45521;-75
2022/06/13 19:16:45;;;;;;;;;8.67;6.67;;;;;27.17;39.60;101893.84;5032096;28;45573;-75